createdAt,value
2022-09-13T00:00:42.907Z,14.91
2022-09-13T00:06:14.765Z,14.81
2022-09-13T00:11:46.558Z,14.76
2022-09-13T00:17:18.507Z,14.68
2022-09-13T00:22:50.178Z,14.71
2022-09-13T00:28:21.605Z,14.65
2022-09-13T00:36:14.069Z,14.64
2022-09-13T00:41:45.870Z,14.64
2022-09-13T00:47:17.617Z,14.57
2022-09-13T00:52:49.318Z,14.56
2022-09-13T00:58:20.940Z,14.48
2022-09-13T01:09:23.802Z,14.41
2022-09-13T01:14:55.425Z,14.36
2022-09-13T01:20:27.178Z,14.29
2022-09-13T01:25:59.204Z,14.30
2022-09-13T01:31:30.916Z,14.27
2022-09-13T01:37:02.440Z,14.26
2022-09-13T01:42:33.744Z,14.23
2022-09-13T01:48:05.137Z,14.17
2022-09-13T01:53:37.010Z,14.16
2022-09-13T01:59:08.815Z,14.12
2022-09-13T02:04:40.492Z,14.10
2022-09-13T02:10:12.101Z,14.06
2022-09-13T02:15:43.628Z,14.03
2022-09-13T02:21:15.313Z,13.98
2022-09-13T02:26:47.017Z,13.98
2022-09-13T02:32:18.323Z,13.95
2022-09-13T02:37:49.792Z,13.88
2022-09-13T02:43:21.374Z,13.85
2022-09-13T02:48:52.787Z,13.80
2022-09-13T02:54:24.022Z,13.74
2022-09-13T03:05:25.077Z,13.58
2022-09-13T03:10:57.064Z,13.57
2022-09-13T03:16:28.760Z,13.53
2022-09-13T03:22:02.090Z,13.51
2022-09-13T03:27:33.870Z,13.44
2022-09-13T03:33:05.468Z,13.46
2022-09-13T03:38:37.217Z,13.43
2022-09-13T03:44:08.771Z,13.38
2022-09-13T03:49:40.263Z,13.37
2022-09-13T03:55:11.967Z,13.36
2022-09-13T04:00:44.015Z,13.40
2022-09-13T04:06:15.546Z,13.40
2022-09-13T04:11:47.064Z,13.41
2022-09-13T04:17:18.609Z,13.40
2022-09-13T04:22:50.539Z,13.43
2022-09-13T04:28:22.190Z,13.44
2022-09-13T04:33:53.643Z,13.41
2022-09-13T04:39:25.309Z,13.43
2022-09-13T04:44:57.131Z,13.40
2022-09-13T04:50:28.866Z,13.38
2022-09-13T04:56:00.892Z,13.41
2022-09-13T05:07:02.264Z,13.50
2022-09-13T05:12:33.717Z,14.16
2022-09-13T05:18:05.744Z,14.81
2022-09-13T05:23:37.284Z,16.13
2022-09-13T05:29:08.862Z,17.01
2022-09-13T05:34:40.229Z,18.16
2022-09-13T05:40:12.651Z,18.64
2022-09-13T05:45:43.838Z,19.86
2022-09-13T05:51:15.146Z,20.47
2022-09-13T05:56:46.941Z,21.13
2022-09-13T06:02:18.530Z,21.45
2022-09-13T06:07:50.017Z,22.85
2022-09-13T06:13:22.151Z,23.86
2022-09-13T06:18:53.994Z,25.54
2022-09-13T06:21:17.167Z,0.00
2022-09-13T06:26:48.930Z,26.78
2022-09-13T06:32:20.267Z,27.37
2022-09-13T06:37:51.931Z,28.27
2022-09-13T06:43:23.461Z,28.43
2022-09-13T06:48:54.886Z,28.88
2022-09-13T06:54:26.690Z,29.39
2022-09-13T07:02:18.234Z,30.79
2022-09-13T07:07:48.861Z,31.25
2022-09-13T07:13:20.070Z,32.19
2022-09-13T07:18:51.880Z,32.63
2022-09-13T07:24:23.468Z,33.41
2022-09-13T07:29:55.365Z,33.79
2022-09-13T07:35:27.300Z,34.45
2022-09-13T07:40:58.931Z,34.52
2022-09-13T07:46:30.430Z,34.52
2022-09-13T07:52:02.591Z,34.62
2022-09-13T07:57:33.850Z,34.86
2022-09-13T08:03:05.181Z,35.11
2022-09-13T08:08:36.302Z,35.47
2022-09-13T08:14:08.013Z,35.47
2022-09-13T08:19:39.743Z,35.08
2022-09-13T08:25:11.628Z,34.67
2022-09-13T08:30:43.214Z,33.60
2022-09-13T08:36:14.961Z,33.22
2022-09-13T08:41:46.310Z,33.00
2022-09-13T08:47:17.835Z,33.00
2022-09-13T08:58:18.149Z,33.48
2022-09-13T09:09:19.068Z,33.73
2022-09-13T09:14:50.608Z,32.81
2022-09-13T09:20:22.411Z,32.40
2022-09-13T09:25:54.149Z,31.77
2022-09-13T09:31:26.120Z,31.44
2022-09-13T09:36:57.370Z,30.86
2022-09-13T09:42:28.829Z,30.64
2022-09-13T09:48:00.688Z,30.16
2022-09-13T09:53:36.597Z,29.85
2022-09-13T09:59:03.596Z,29.56
2022-09-13T10:04:35.286Z,29.44
2022-09-13T10:10:06.649Z,29.26
2022-09-13T10:15:37.833Z,29.17
2022-09-13T10:21:09.143Z,29.05
2022-09-13T10:26:40.670Z,29.05
2022-09-13T10:32:12.647Z,29.10
2022-09-13T10:37:44.353Z,29.13
2022-09-13T10:43:15.768Z,29.16
2022-09-13T10:48:47.255Z,29.23
2022-09-13T10:54:18.569Z,29.58
2022-09-13T10:59:49.959Z,29.89
2022-09-13T11:05:21.743Z,30.75
2022-09-13T11:10:53.740Z,31.01
2022-09-13T11:16:25.405Z,31.47
2022-09-13T11:21:57.235Z,31.60
2022-09-13T11:27:29.131Z,31.99
2022-09-13T11:33:00.899Z,32.04
2022-09-13T11:44:01.641Z,32.30
2022-09-13T11:49:33.384Z,32.26
2022-09-13T11:55:04.594Z,32.22
2022-09-13T12:06:07.315Z,32.33
2022-09-13T12:11:38.612Z,32.38
2022-09-13T12:17:10.118Z,32.55
2022-09-13T12:22:41.869Z,32.57
2022-09-13T12:39:12.575Z,31.44
2022-09-13T12:44:44.010Z,31.18
2022-09-13T12:55:47.377Z,30.57
2022-09-13T13:01:16.260Z,30.24
2022-09-13T13:06:47.910Z,30.18
2022-09-13T13:12:21.146Z,30.03
2022-09-13T13:17:52.428Z,30.01
2022-09-13T13:23:23.753Z,29.98
2022-09-13T13:28:55.021Z,30.05
2022-09-13T13:39:57.578Z,30.18
2022-09-13T13:45:29.289Z,30.16
2022-09-13T13:51:00.950Z,30.13
2022-09-13T13:56:32.867Z,30.16
2022-09-13T14:02:04.603Z,30.20
2022-09-13T14:07:35.833Z,30.44
2022-09-13T14:13:07.349Z,30.61
2022-09-13T14:18:38.858Z,30.96
2022-09-13T14:24:10.137Z,31.06
2022-09-13T14:29:41.698Z,31.34
2022-09-13T14:35:13.511Z,31.41
2022-09-13T14:40:45.116Z,31.53
2022-09-13T14:46:16.779Z,31.59
2022-09-13T14:51:48.189Z,31.67
2022-09-13T14:57:19.533Z,31.71
2022-09-13T15:02:51.376Z,31.75
2022-09-13T15:08:25.478Z,31.71
2022-09-13T15:13:54.368Z,31.37
2022-09-13T15:19:26.100Z,31.12
2022-09-13T15:24:57.381Z,30.70
2022-09-13T15:30:28.872Z,30.41
2022-09-13T15:36:00.619Z,29.91
2022-09-13T15:41:31.975Z,29.69
2022-09-13T15:47:04.016Z,29.29
2022-09-13T15:52:35.468Z,29.09
2022-09-13T15:58:07.449Z,28.77
2022-09-13T16:03:39.026Z,28.60
2022-09-13T16:09:10.414Z,28.33
2022-09-13T16:14:41.839Z,28.22
2022-09-13T16:20:13.532Z,28.11
2022-09-13T16:25:45.439Z,28.08
2022-09-13T16:31:17.135Z,27.96
2022-09-13T16:36:48.838Z,27.88
2022-09-13T16:42:20.814Z,27.71
2022-09-13T16:47:52.397Z,27.61
2022-09-13T16:53:24.258Z,27.41
2022-09-13T16:58:56.027Z,27.29
2022-09-13T17:04:27.723Z,27.06
2022-09-13T17:09:59.336Z,26.95
2022-09-13T17:15:31.072Z,26.71
2022-09-13T17:21:03.047Z,26.62
2022-09-13T17:26:34.962Z,26.41
2022-09-13T17:32:06.626Z,26.34
2022-09-13T17:37:38.540Z,26.16
2022-09-13T17:43:10.562Z,26.03
2022-09-13T17:48:42.433Z,25.77
2022-09-13T17:54:13.889Z,25.62
2022-09-13T17:59:45.905Z,25.40
2022-09-13T18:05:17.805Z,25.30
2022-09-13T18:11:10.677Z,25.14
2022-09-13T18:16:21.763Z,25.05
2022-09-13T18:21:53.045Z,24.88
2022-09-13T18:27:24.778Z,24.78
2022-09-13T18:32:56.443Z,24.60
2022-09-13T18:38:28.296Z,24.54
2022-09-13T18:44:00.345Z,24.36
2022-09-13T18:49:31.841Z,24.30
2022-09-13T18:55:03.460Z,24.17
2022-09-13T19:00:35.220Z,24.12
2022-09-13T19:06:06.991Z,24.00
2022-09-13T19:11:47.434Z,23.96
2022-09-13T19:17:10.018Z,23.91
2022-09-13T19:22:42.096Z,23.86
2022-09-13T19:28:13.585Z,23.81
2022-09-13T19:33:45.537Z,23.78
2022-09-13T19:39:17.107Z,23.68
2022-09-13T19:44:48.664Z,23.59
2022-09-13T19:50:20.252Z,23.42
2022-09-13T19:55:51.920Z,23.37
2022-09-13T20:01:23.280Z,23.14
2022-09-13T20:06:54.671Z,23.07
2022-09-13T20:12:26.090Z,22.85
2022-09-13T20:14:38.161Z,0.00
2022-09-13T20:20:09.437Z,22.71
2022-09-13T20:25:40.820Z,22.58
2022-09-13T20:31:12.045Z,22.42
2022-09-13T20:36:43.310Z,22.33
2022-09-13T20:42:14.947Z,22.12
2022-09-13T20:47:46.540Z,22.00
2022-09-13T20:53:17.840Z,21.80
2022-09-13T20:58:51.669Z,21.72
2022-09-13T21:09:52.832Z,21.50
2022-09-13T21:15:24.423Z,21.37
2022-09-13T21:20:55.950Z,21.34
2022-09-13T21:26:27.714Z,21.30
2022-09-13T21:37:28.492Z,21.31
2022-09-13T21:42:59.899Z,21.33
2022-09-13T21:48:31.509Z,21.31
2022-09-13T21:54:03.380Z,21.29
2022-09-13T21:59:35.207Z,21.27
2022-09-13T22:05:06.724Z,21.30
2022-09-13T22:10:38.000Z,21.27
2022-09-13T22:16:09.665Z,21.27
2022-09-13T22:21:41.502Z,21.27
2022-09-13T22:27:13.103Z,21.25
2022-09-13T22:32:44.885Z,21.18
2022-09-13T22:38:16.839Z,21.10
2022-09-13T22:43:48.363Z,20.97
2022-09-13T22:49:19.536Z,20.96
2022-09-13T22:54:50.954Z,20.92
2022-09-13T23:00:22.227Z,20.90
2022-09-13T23:05:53.541Z,20.90
2022-09-13T23:13:38.009Z,20.85
2022-09-13T23:19:09.318Z,20.86
2022-09-13T23:24:40.895Z,20.86
2022-09-13T23:30:12.444Z,20.83
2022-09-13T23:35:43.773Z,20.80
2022-09-13T23:41:15.036Z,20.79
2022-09-13T23:46:46.484Z,20.80
2022-09-13T23:52:18.141Z,20.78
2022-09-13T23:57:49.244Z,20.80
